createdAt,value
2023-01-22T00:00:06.872Z,63.11
2023-01-22T00:02:40.622Z,62.89
2023-01-22T00:05:09.481Z,62.90
2023-01-22T00:07:38.659Z,62.42
2023-01-22T00:10:07.160Z,61.15
2023-01-22T00:12:36.250Z,60.93
2023-01-22T00:15:04.166Z,62.05
2023-01-22T00:17:32.015Z,62.85
2023-01-22T00:19:59.767Z,62.53
2023-01-22T00:22:27.588Z,62.15
2023-01-22T00:24:56.742Z,62.43
2023-01-22T00:27:24.609Z,62.59
2023-01-22T00:29:52.353Z,62.78
2023-01-22T00:32:20.217Z,62.83
2023-01-22T00:34:52.335Z,62.35
2023-01-22T00:37:20.410Z,62.21
2023-01-22T00:39:48.135Z,62.02
2023-01-22T00:42:17.235Z,61.38
2023-01-22T00:44:44.995Z,62.05
2023-01-22T00:47:13.016Z,61.98
2023-01-22T00:49:40.806Z,61.36
2023-01-22T00:52:08.578Z,61.10
2023-01-22T00:54:36.407Z,61.21
2023-01-22T00:57:04.393Z,61.47
2023-01-22T00:59:33.591Z,62.22
2023-01-22T01:02:01.399Z,62.11
2023-01-22T01:04:29.234Z,62.62
2023-01-22T01:06:57.037Z,62.89
2023-01-22T01:09:24.873Z,63.86
2023-01-22T01:11:53.253Z,62.90
2023-01-22T01:14:21.096Z,63.39
2023-01-22T01:16:51.235Z,63.99
2023-01-22T01:19:20.468Z,63.91
2023-01-22T01:21:51.718Z,64.70
2023-01-22T01:24:19.506Z,64.88
2023-01-22T01:26:47.262Z,64.46
2023-01-22T01:29:15.977Z,64.26
2023-01-22T01:31:43.800Z,64.12
2023-01-22T01:34:13.585Z,65.09
2023-01-22T01:36:48.866Z,64.39
2023-01-22T01:39:17.376Z,65.13
2023-01-22T01:41:45.756Z,65.79
2023-01-22T01:44:15.620Z,65.46
2023-01-22T01:46:47.838Z,65.32
2023-01-22T01:49:24.073Z,64.24
2023-01-22T01:51:53.692Z,65.95
2023-01-22T01:54:21.651Z,65.51
2023-01-22T01:56:52.570Z,65.72
2023-01-22T01:59:22.780Z,65.97
2023-01-22T02:01:55.685Z,65.90
2023-01-22T02:04:25.195Z,65.80
2023-01-22T02:06:54.815Z,66.18
2023-01-22T02:09:22.916Z,66.79
2023-01-22T02:11:52.505Z,66.29
2023-01-22T02:14:25.245Z,66.40
2023-01-22T02:17:01.293Z,66.24
2023-01-22T02:19:30.434Z,66.44
2023-01-22T02:21:59.616Z,65.99
2023-01-22T02:24:31.352Z,66.17
2023-01-22T02:26:59.358Z,65.90
2023-01-22T02:29:28.956Z,66.06
2023-01-22T02:31:56.866Z,65.85
2023-01-22T02:34:25.064Z,66.37
2023-01-22T02:36:54.602Z,65.79
2023-01-22T02:39:23.763Z,65.70
2023-01-22T02:41:52.371Z,61.89
2023-01-22T02:44:20.659Z,60.94
2023-01-22T02:46:48.416Z,63.94
2023-01-22T02:49:16.478Z,65.19
2023-01-22T02:51:44.231Z,65.98
2023-01-22T02:54:12.509Z,65.72
2023-01-22T02:56:41.819Z,65.24
2023-01-22T02:59:09.897Z,65.80
2023-01-22T03:01:38.234Z,66.40
2023-01-22T03:04:10.877Z,65.11
2023-01-22T03:06:40.582Z,65.27
2023-01-22T03:09:10.103Z,65.35
2023-01-22T03:11:42.110Z,66.10
2023-01-22T03:14:34.369Z,67.42
2023-01-22T03:17:19.848Z,67.34
2023-01-22T03:20:05.492Z,67.91
2023-01-22T03:22:33.403Z,68.19
2023-01-22T03:25:01.442Z,68.31
2023-01-22T03:27:32.525Z,69.72
2023-01-22T03:30:00.369Z,68.94
2023-01-22T03:32:32.509Z,69.09
2023-01-22T03:35:01.722Z,67.11
2023-01-22T03:37:39.238Z,68.53
2023-01-22T03:40:10.216Z,69.80
2023-01-22T03:42:41.565Z,70.93
2023-01-22T03:45:10.660Z,71.33
2023-01-22T03:47:38.918Z,71.09
2023-01-22T03:50:20.755Z,71.80
2023-01-22T03:52:48.545Z,71.73
2023-01-22T03:55:16.921Z,71.94
2023-01-22T03:57:46.326Z,71.51
2023-01-22T04:00:16.215Z,71.50
2023-01-22T04:02:44.319Z,72.55
2023-01-22T04:05:20.701Z,73.33
2023-01-22T04:07:50.586Z,73.29
2023-01-22T04:10:20.936Z,66.81
2023-01-22T04:12:50.974Z,71.06
2023-01-22T04:15:21.969Z,68.18
2023-01-22T04:17:51.058Z,62.49
2023-01-22T04:20:45.579Z,61.11
2023-01-22T04:23:39.928Z,60.54
2023-01-22T04:26:07.817Z,60.71
2023-01-22T04:28:36.951Z,60.55
2023-01-22T04:31:05.670Z,60.74
2023-01-22T04:33:56.834Z,60.43
2023-01-22T04:36:29.544Z,60.38
2023-01-22T04:38:57.571Z,59.76
2023-01-22T04:41:25.667Z,61.03
2023-01-22T04:43:54.954Z,61.10
2023-01-22T04:46:25.191Z,61.40
2023-01-22T04:48:53.698Z,63.36
2023-01-22T04:51:21.567Z,63.96
2023-01-22T04:53:49.448Z,61.58
2023-01-22T04:56:18.258Z,60.84
2023-01-22T04:58:46.457Z,61.00
2023-01-22T05:01:17.390Z,62.08
2023-01-22T05:03:46.028Z,62.43
2023-01-22T05:06:13.921Z,62.51
2023-01-22T05:08:41.671Z,61.87
2023-01-22T05:11:11.121Z,62.07
2023-01-22T05:13:52.884Z,62.42
2023-01-22T05:16:22.618Z,62.49
2023-01-22T05:18:50.518Z,60.74
2023-01-22T05:21:18.716Z,59.99
2023-01-22T05:23:47.584Z,61.33
2023-01-22T05:26:15.515Z,62.14
2023-01-22T05:28:52.977Z,61.85
2023-01-22T05:31:41.028Z,61.43
2023-01-22T05:34:16.658Z,60.25
2023-01-22T05:36:44.516Z,59.92
2023-01-22T05:39:17.082Z,59.86
2023-01-22T05:41:45.538Z,59.39
2023-01-22T05:44:15.055Z,59.80
2023-01-22T05:46:47.923Z,59.48
2023-01-22T05:49:21.697Z,59.76
2023-01-22T05:51:50.949Z,60.04
2023-01-22T05:54:19.269Z,59.64
2023-01-22T05:56:48.563Z,59.91
2023-01-22T05:59:16.589Z,61.53
2023-01-22T06:01:50.226Z,59.51
2023-01-22T06:04:18.000Z,59.90
2023-01-22T06:06:45.815Z,58.39
2023-01-22T06:09:14.212Z,58.40
2023-01-22T06:11:43.145Z,58.73
2023-01-22T06:14:12.606Z,58.49
2023-01-22T06:16:40.531Z,59.56
2023-01-22T06:19:14.107Z,60.34
2023-01-22T06:21:50.460Z,59.84
2023-01-22T06:24:19.081Z,59.77
2023-01-22T06:26:47.874Z,59.89
2023-01-22T06:29:16.356Z,60.43
2023-01-22T06:31:45.893Z,59.65
2023-01-22T06:34:19.200Z,61.89
2023-01-22T06:36:47.033Z,63.08
2023-01-22T06:39:15.979Z,63.18
2023-01-22T06:41:58.783Z,62.77
2023-01-22T06:44:26.564Z,62.17
2023-01-22T06:46:54.410Z,62.01
2023-01-22T06:49:27.577Z,62.33
2023-01-22T06:51:55.854Z,62.00
2023-01-22T06:54:24.281Z,62.26
2023-01-22T06:56:52.079Z,61.17
2023-01-22T06:59:22.893Z,61.12
2023-01-22T07:01:50.740Z,62.06
2023-01-22T07:04:18.531Z,61.27
2023-01-22T07:06:47.781Z,59.33
2023-01-22T07:09:15.561Z,58.81
2023-01-22T07:11:43.335Z,58.61
2023-01-22T07:14:11.070Z,60.01
2023-01-22T07:16:38.905Z,59.33
2023-01-22T07:19:06.726Z,58.87
2023-01-22T07:21:34.630Z,58.31
2023-01-22T07:24:03.834Z,58.74
2023-01-22T07:26:31.646Z,57.94
2023-01-22T07:28:59.433Z,58.42
2023-01-22T07:31:27.336Z,58.03
2023-01-22T07:33:55.255Z,58.35
2023-01-22T07:36:23.195Z,59.05
2023-01-22T07:38:50.950Z,61.82
2023-01-22T07:41:25.765Z,68.26
2023-01-22T07:43:56.063Z,70.22
2023-01-22T07:46:24.139Z,70.97
2023-01-22T07:48:51.991Z,71.83
2023-01-22T07:51:19.997Z,71.83
2023-01-22T07:53:47.825Z,65.58
2023-01-22T07:56:15.637Z,58.83
2023-01-22T07:58:44.767Z,64.11
2023-01-22T08:01:12.944Z,68.65
2023-01-22T08:03:40.820Z,69.74
2023-01-22T08:06:09.562Z,70.61
2023-01-22T08:08:37.589Z,65.42
2023-01-22T08:11:05.941Z,60.14
2023-01-22T08:13:33.746Z,57.81
2023-01-22T08:16:03.277Z,57.17
2023-01-22T08:18:31.308Z,63.75
2023-01-22T08:21:00.883Z,61.50
2023-01-22T08:23:28.824Z,58.44
2023-01-22T08:25:59.382Z,60.53
2023-01-22T08:28:27.742Z,64.37
2023-01-22T08:30:58.803Z,60.35
2023-01-22T08:33:28.715Z,64.00
2023-01-22T08:35:56.688Z,67.15
2023-01-22T08:38:24.450Z,68.34
2023-01-22T08:40:52.793Z,69.00
2023-01-22T08:43:20.730Z,68.75
2023-01-22T08:45:49.864Z,68.65
2023-01-22T08:48:17.794Z,68.77
2023-01-22T08:50:47.021Z,68.25
2023-01-22T08:53:14.855Z,67.18
2023-01-22T08:55:42.612Z,67.89
2023-01-22T08:58:10.484Z,66.21
2023-01-22T09:00:38.366Z,65.92
2023-01-22T09:03:06.542Z,65.89
2023-01-22T09:05:34.330Z,66.22
2023-01-22T09:08:03.495Z,67.19
2023-01-22T09:10:31.249Z,66.90
2023-01-22T09:13:00.413Z,67.84
2023-01-22T09:15:28.435Z,67.12
2023-01-22T09:17:56.394Z,66.88
2023-01-22T09:20:24.194Z,67.49
2023-01-22T09:22:51.984Z,67.23
2023-01-22T09:25:21.390Z,66.13
2023-01-22T09:27:49.165Z,66.49
2023-01-22T09:30:17.982Z,67.74
2023-01-22T09:32:45.919Z,67.38
2023-01-22T09:35:16.273Z,66.53
2023-01-22T09:37:44.365Z,65.50
2023-01-22T09:40:25.992Z,65.72
2023-01-22T09:43:05.128Z,64.34
2023-01-22T09:45:35.534Z,64.66
2023-01-22T09:48:08.891Z,63.08
2023-01-22T09:50:37.831Z,63.05
2023-01-22T09:53:10.571Z,63.00
2023-01-22T09:55:44.969Z,62.34
2023-01-22T09:58:16.662Z,62.78
2023-01-22T10:00:47.844Z,63.26
2023-01-22T10:03:22.768Z,63.16
2023-01-22T10:05:55.166Z,63.74
2023-01-22T10:08:24.544Z,63.74
2023-01-22T10:10:53.729Z,63.20
2023-01-22T10:13:23.367Z,63.19
2023-01-22T10:15:53.431Z,63.36
2023-01-22T10:18:34.443Z,63.65
2023-01-22T10:21:20.016Z,64.37
2023-01-22T10:23:50.208Z,64.09
2023-01-22T10:26:24.973Z,64.37
2023-01-22T10:28:56.223Z,64.14
2023-01-22T10:31:27.577Z,63.54
2023-01-22T10:33:59.528Z,62.53
2023-01-22T10:36:28.243Z,62.12
2023-01-22T10:39:06.964Z,62.84
2023-01-22T10:41:36.251Z,62.66
2023-01-22T10:44:21.325Z,62.31
2023-01-22T10:46:50.773Z,63.32
2023-01-22T10:49:22.347Z,62.95
2023-01-22T10:51:55.407Z,63.40
2023-01-22T10:54:29.763Z,63.20
2023-01-22T10:57:08.392Z,62.81
2023-01-22T10:59:36.594Z,63.30
2023-01-22T11:02:16.078Z,63.21
2023-01-22T11:04:43.986Z,63.53
2023-01-22T11:07:15.935Z,63.77
2023-01-22T11:09:48.731Z,63.17
2023-01-22T11:12:23.327Z,63.15
2023-01-22T11:15:04.750Z,63.01
2023-01-22T11:17:38.818Z,63.35
2023-01-22T11:20:17.872Z,62.91
2023-01-22T11:22:51.017Z,63.05
2023-01-22T11:25:18.898Z,63.10
2023-01-22T11:28:00.749Z,62.68
2023-01-22T11:30:49.748Z,61.63
2023-01-22T11:33:33.397Z,62.56
2023-01-22T11:36:09.449Z,63.01
2023-01-22T11:38:45.182Z,63.61
2023-01-22T11:41:38.252Z,64.58
2023-01-22T11:44:27.913Z,64.04
2023-01-22T11:47:07.767Z,64.13
2023-01-22T11:49:45.653Z,64.35
2023-01-22T11:52:26.653Z,63.16
2023-01-22T11:55:15.655Z,63.56
2023-01-22T11:57:47.993Z,63.66
2023-01-22T12:00:29.904Z,63.23
2023-01-22T12:03:25.249Z,64.09
2023-01-22T12:06:06.549Z,63.66
2023-01-22T12:08:48.375Z,63.57
2023-01-22T12:11:30.384Z,63.53
2023-01-22T12:14:21.701Z,63.13
2023-01-22T12:16:59.368Z,63.14
2023-01-22T12:19:53.910Z,63.90
2023-01-22T12:22:29.884Z,63.82
2023-01-22T12:25:03.351Z,63.34
2023-01-22T12:27:35.843Z,64.14
2023-01-22T12:30:15.113Z,63.92
2023-01-22T12:32:49.453Z,63.89
2023-01-22T12:35:19.230Z,63.91
2023-01-22T12:37:56.588Z,63.67
2023-01-22T12:40:42.439Z,63.07
2023-01-22T12:43:10.219Z,63.78
2023-01-22T12:45:45.666Z,63.67
2023-01-22T12:48:26.954Z,63.66
2023-01-22T12:50:57.215Z,64.75
2023-01-22T12:53:27.970Z,65.11
2023-01-22T12:56:01.281Z,64.98
2023-01-22T12:58:31.391Z,65.11
2023-01-22T13:01:20.745Z,64.13
2023-01-22T13:03:59.374Z,63.83
2023-01-22T13:06:33.193Z,64.31
2023-01-22T13:09:01.237Z,64.44
2023-01-22T13:11:31.925Z,64.12
2023-01-22T13:14:15.227Z,64.00
2023-01-22T13:16:52.419Z,64.55
2023-01-22T13:19:24.056Z,65.22
2023-01-22T13:21:52.795Z,63.94
2023-01-22T13:24:22.050Z,64.76
2023-01-22T13:26:57.087Z,64.45
2023-01-22T13:29:28.786Z,64.35
2023-01-22T13:31:58.514Z,64.87
2023-01-22T13:34:29.111Z,64.85
2023-01-22T13:36:57.555Z,65.15
2023-01-22T13:39:29.721Z,64.29
2023-01-22T13:41:59.436Z,64.19
2023-01-22T13:44:36.782Z,64.75
2023-01-22T13:47:05.246Z,64.61
2023-01-22T13:49:42.289Z,64.33
2023-01-22T13:52:15.857Z,64.54
2023-01-22T13:54:48.487Z,64.84
2023-01-22T13:57:22.399Z,64.37
2023-01-22T13:59:56.264Z,64.36
2023-01-22T14:02:24.892Z,64.73
2023-01-22T14:04:54.139Z,64.67
2023-01-22T14:07:26.946Z,64.78
2023-01-22T14:09:55.783Z,65.55
2023-01-22T14:12:25.874Z,64.69
2023-01-22T14:14:54.888Z,64.49
2023-01-22T14:17:28.702Z,64.76
2023-01-22T14:19:58.619Z,64.58
2023-01-22T14:22:26.965Z,65.11
2023-01-22T14:24:55.022Z,65.93
2023-01-22T14:27:23.928Z,67.17
2023-01-22T14:29:53.270Z,66.20
2023-01-22T14:32:21.385Z,66.07
2023-01-22T14:34:49.113Z,65.87
2023-01-22T14:37:19.191Z,65.83
2023-01-22T14:39:46.909Z,66.96
2023-01-22T14:42:14.727Z,66.89
2023-01-22T14:44:42.508Z,67.70
2023-01-22T14:47:10.286Z,67.52
2023-01-22T14:49:40.248Z,67.41
2023-01-22T14:52:07.997Z,67.31
2023-01-22T14:54:37.296Z,67.53
2023-01-22T14:57:05.223Z,67.54
2023-01-22T14:59:33.124Z,67.67
2023-01-22T15:02:00.968Z,67.00
2023-01-22T15:04:28.753Z,67.29
2023-01-22T15:06:56.563Z,67.58
2023-01-22T15:09:24.465Z,66.77
2023-01-22T15:11:53.596Z,66.95
2023-01-22T15:14:21.733Z,67.62
2023-01-22T15:16:49.532Z,67.40
2023-01-22T15:19:18.709Z,67.42
2023-01-22T15:21:46.625Z,67.04
2023-01-22T15:24:14.729Z,66.83
2023-01-22T15:26:43.406Z,67.85
2023-01-22T15:29:14.521Z,68.16
2023-01-22T15:31:42.960Z,67.33
2023-01-22T15:34:11.152Z,67.82
2023-01-22T15:36:40.501Z,67.42
2023-01-22T15:39:09.289Z,67.33
2023-01-22T15:41:37.894Z,67.46
2023-01-22T15:44:07.293Z,67.76
2023-01-22T15:46:37.933Z,67.66
2023-01-22T15:49:08.128Z,68.54
2023-01-22T15:51:36.964Z,69.42
2023-01-22T15:54:07.045Z,69.61
2023-01-22T15:56:38.436Z,68.91
2023-01-22T15:59:06.793Z,67.38
2023-01-22T16:01:36.112Z,66.74
2023-01-22T16:04:04.944Z,68.06
2023-01-22T16:06:34.421Z,68.80
2023-01-22T16:09:04.782Z,69.17
2023-01-22T16:11:32.902Z,69.42
2023-01-22T16:14:01.186Z,69.11
2023-01-22T16:16:31.806Z,69.45
2023-01-22T16:19:02.584Z,69.72
2023-01-22T16:21:30.502Z,70.01
2023-01-22T16:24:00.669Z,69.88
2023-01-22T16:26:30.528Z,69.82
2023-01-22T16:29:00.757Z,70.19
2023-01-22T16:31:31.922Z,69.45
2023-01-22T16:34:02.876Z,68.90
2023-01-22T16:36:32.443Z,69.47
2023-01-22T16:39:01.124Z,70.26
2023-01-22T16:41:30.510Z,70.18
2023-01-22T16:44:00.834Z,70.31
2023-01-22T16:46:30.323Z,69.48
2023-01-22T16:49:01.520Z,70.23
2023-01-22T16:51:42.828Z,69.77
2023-01-22T16:54:17.421Z,69.49
2023-01-22T16:56:45.300Z,69.69
2023-01-22T16:59:13.260Z,68.97
2023-01-22T17:01:41.806Z,67.82
2023-01-22T17:04:11.169Z,68.07
2023-01-22T17:06:41.250Z,69.31
2023-01-22T17:09:15.098Z,66.81
2023-01-22T17:11:43.558Z,68.03
2023-01-22T17:14:11.743Z,68.68
2023-01-22T17:16:39.742Z,69.10
2023-01-22T17:19:07.602Z,69.13
2023-01-22T17:21:36.895Z,69.07
2023-01-22T17:24:05.288Z,69.69
2023-01-22T17:26:33.169Z,70.75
2023-01-22T17:29:01.095Z,71.50
2023-01-22T17:31:31.253Z,71.24
2023-01-22T17:33:59.410Z,71.45
2023-01-22T17:36:28.839Z,71.11
2023-01-22T17:38:58.323Z,71.46
2023-01-22T17:41:27.008Z,70.54
2023-01-22T17:43:57.723Z,70.51
2023-01-22T17:46:27.361Z,70.21
2023-01-22T17:48:56.002Z,70.38
2023-01-22T17:51:26.507Z,71.10
2023-01-22T17:53:56.206Z,70.94
2023-01-22T17:56:27.503Z,70.03
2023-01-22T17:58:57.157Z,70.31
2023-01-22T18:01:28.652Z,70.45
2023-01-22T18:03:57.653Z,69.21
2023-01-22T18:06:25.577Z,70.25
2023-01-22T18:08:53.513Z,71.13
2023-01-22T18:11:24.076Z,71.18
2023-01-22T18:13:55.997Z,69.65
2023-01-22T18:16:25.238Z,68.56
2023-01-22T18:18:54.462Z,68.07
2023-01-22T18:21:23.182Z,67.77
2023-01-22T18:23:51.640Z,67.87
2023-01-22T18:26:22.896Z,68.00
2023-01-22T18:28:51.666Z,67.87
2023-01-22T18:31:22.757Z,69.51
2023-01-22T18:33:50.645Z,69.63
2023-01-22T18:36:20.878Z,69.60
2023-01-22T18:38:49.328Z,69.12
2023-01-22T18:41:19.633Z,69.23
2023-01-22T18:43:48.336Z,69.20
2023-01-22T18:46:17.075Z,68.51
2023-01-22T18:48:46.253Z,67.93
2023-01-22T18:51:14.457Z,68.36
2023-01-22T18:53:42.962Z,68.90
2023-01-22T18:56:12.945Z,71.11
2023-01-22T18:58:43.544Z,68.56
2023-01-22T19:01:14.102Z,68.12
2023-01-22T19:03:43.705Z,68.19
2023-01-22T19:06:16.171Z,68.11
2023-01-22T19:08:46.068Z,59.28
2023-01-22T19:11:14.875Z,56.60
2023-01-22T19:13:45.086Z,57.65
2023-01-22T19:16:15.343Z,59.57
2023-01-22T19:18:46.539Z,60.12
2023-01-22T19:21:18.019Z,60.12
2023-01-22T19:23:46.922Z,58.91
2023-01-22T19:26:17.772Z,58.21
2023-01-22T19:28:45.796Z,58.10
2023-01-22T19:31:16.613Z,58.69
2023-01-22T19:33:44.432Z,57.60
2023-01-22T19:36:12.253Z,57.30
2023-01-22T19:38:41.616Z,58.25
2023-01-22T19:41:10.102Z,56.63
2023-01-22T19:43:38.019Z,58.14
2023-01-22T19:46:08.038Z,57.55
2023-01-22T19:48:37.143Z,58.25
2023-01-22T19:51:07.196Z,58.65
2023-01-22T19:53:36.597Z,58.46
2023-01-22T19:56:07.000Z,58.00
2023-01-22T19:58:34.858Z,56.36
2023-01-22T20:01:09.293Z,55.93
2023-01-22T20:03:37.133Z,55.30
2023-01-22T20:06:06.742Z,55.86
2023-01-22T20:08:36.253Z,55.21
2023-01-22T20:11:07.674Z,57.06
2023-01-22T20:13:36.754Z,57.16
2023-01-22T20:16:05.410Z,58.04
2023-01-22T20:18:33.849Z,58.09
2023-01-22T20:21:03.957Z,57.13
2023-01-22T20:23:31.807Z,57.38
2023-01-22T20:26:02.062Z,57.36
2023-01-22T20:28:31.465Z,56.67
2023-01-22T20:31:01.295Z,57.41
2023-01-22T20:33:29.578Z,58.20
2023-01-22T20:35:58.012Z,57.71
2023-01-22T20:38:26.362Z,56.46
2023-01-22T20:40:54.165Z,55.98
2023-01-22T20:43:21.968Z,55.82
2023-01-22T20:46:01.279Z,56.23
2023-01-22T20:48:30.025Z,55.23
2023-01-22T20:50:58.268Z,56.31
2023-01-22T20:53:26.876Z,55.55
2023-01-22T20:56:02.959Z,56.06
2023-01-22T20:58:30.986Z,57.84
2023-01-22T21:01:06.108Z,58.28
2023-01-22T21:03:34.457Z,58.35
2023-01-22T21:06:04.111Z,59.40
2023-01-22T21:08:32.085Z,59.19
2023-01-22T21:11:01.519Z,58.97
2023-01-22T21:13:29.833Z,57.76
2023-01-22T21:15:58.094Z,59.42
2023-01-22T21:18:27.542Z,57.97
2023-01-22T21:20:55.340Z,58.24
2023-01-22T21:23:23.112Z,58.30
2023-01-22T21:25:51.563Z,59.11
2023-01-22T21:28:19.549Z,59.49
2023-01-22T21:30:47.619Z,59.44
2023-01-22T21:33:16.948Z,59.45
2023-01-22T21:35:50.650Z,59.83
2023-01-22T21:38:18.446Z,59.44
2023-01-22T21:40:46.467Z,58.53
2023-01-22T21:43:33.559Z,58.23
2023-01-22T21:46:18.763Z,59.37
2023-01-22T21:48:46.592Z,59.85
2023-01-22T21:51:16.247Z,60.23
2023-01-22T21:53:44.929Z,60.12
2023-01-22T21:56:12.952Z,60.38
2023-01-22T21:58:45.091Z,59.44
2023-01-22T22:01:16.221Z,59.62
2023-01-22T22:03:44.355Z,60.31
2023-01-22T22:06:13.273Z,60.23
2023-01-22T22:08:44.308Z,59.77
2023-01-22T22:11:13.751Z,59.04
2023-01-22T22:13:41.953Z,59.32
2023-01-22T22:16:11.364Z,59.79
2023-01-22T22:18:39.486Z,59.85
2023-01-22T22:21:09.473Z,59.76
2023-01-22T22:23:38.013Z,58.18
2023-01-22T22:26:08.796Z,58.92
2023-01-22T22:28:36.807Z,59.58
2023-01-22T22:31:06.080Z,58.64
2023-01-22T22:33:33.872Z,59.05
2023-01-22T22:36:02.077Z,57.89
2023-01-22T22:38:30.020Z,58.03
2023-01-22T22:41:02.895Z,57.73
2023-01-22T22:43:36.568Z,58.70
2023-01-22T22:46:06.414Z,59.41
2023-01-22T22:48:35.047Z,57.38
2023-01-22T22:51:10.782Z,57.81
2023-01-22T22:53:38.601Z,58.49
2023-01-22T22:56:08.150Z,59.13
2023-01-22T22:58:37.864Z,59.32
2023-01-22T23:01:09.563Z,58.89
2023-01-22T23:03:38.465Z,57.61
2023-01-22T23:06:10.402Z,57.26
2023-01-22T23:08:38.818Z,56.42
2023-01-22T23:11:08.431Z,57.05
2023-01-22T23:13:38.404Z,57.48
2023-01-22T23:16:08.593Z,58.71
2023-01-22T23:18:36.954Z,58.14
2023-01-22T23:21:06.112Z,57.23
2023-01-22T23:23:34.389Z,56.74
2023-01-22T23:26:02.765Z,57.74
2023-01-22T23:28:30.543Z,57.60
2023-01-22T23:31:05.587Z,57.16
2023-01-22T23:33:33.598Z,57.05
2023-01-22T23:36:02.109Z,56.82
2023-01-22T23:38:29.952Z,57.20
2023-01-22T23:40:58.168Z,56.05
2023-01-22T23:43:25.990Z,56.99
2023-01-22T23:45:53.752Z,55.96
2023-01-22T23:48:23.331Z,56.44
2023-01-22T23:50:53.790Z,56.42
2023-01-22T23:53:22.777Z,57.02
2023-01-22T23:55:50.626Z,56.96
2023-01-22T23:58:18.406Z,57.46
